sensor_id;sensor_type;location;lat;lon;timestamp;P1;durP1;ratioP1;P2;durP2;ratioP2
45694;SDS011;31408;45.468;9.124;2023-08-30T00:01:19;3.88;;;1.70;;
45694;SDS011;31408;45.468;9.124;2023-08-30T00:03:45;5.18;;;1.38;;
45694;SDS011;31408;45.468;9.124;2023-08-30T00:06:10;1.65;;;1.45;;
45694;SDS011;31408;45.468;9.124;2023-08-30T00:08:36;1.80;;;1.02;;
45694;SDS011;31408;45.468;9.124;2023-08-30T00:11:01;1.73;;;1.30;;
45694;SDS011;31408;45.468;9.124;2023-08-30T00:13:29;2.67;;;1.92;;
45694;SDS011;31408;45.468;9.124;2023-08-30T00:15:56;2.67;;;1.52;;
45694;SDS011;31408;45.468;9.124;2023-08-30T00:18:22;6.20;;;2.47;;
45694;SDS011;31408;45.468;9.124;2023-08-30T00:20:48;7.40;;;2.22;;
45694;SDS011;31408;45.468;9.124;2023-08-30T00:23:14;4.95;;;1.70;;
45694;SDS011;31408;45.468;9.124;2023-08-30T00:25:39;3.63;;;1.88;;
45694;SDS011;31408;45.468;9.124;2023-08-30T00:28:05;3.35;;;1.27;;
45694;SDS011;31408;45.468;9.124;2023-08-30T00:30:33;4.00;;;1.73;;
45694;SDS011;31408;45.468;9.124;2023-08-30T00:32:58;4.38;;;1.60;;
45694;SDS011;31408;45.468;9.124;2023-08-30T00:35:23;1.45;;;1.20;;
45694;SDS011;31408;45.468;9.124;2023-08-30T00:37:49;7.20;;;1.75;;
45694;SDS011;31408;45.468;9.124;2023-08-30T00:40:22;2.15;;;1.63;;
45694;SDS011;31408;45.468;9.124;2023-08-30T00:42:52;4.88;;;1.75;;
45694;SDS011;31408;45.468;9.124;2023-08-30T00:45:17;4.70;;;1.85;;
45694;SDS011;31408;45.468;9.124;2023-08-30T00:47:43;3.80;;;1.45;;
45694;SDS011;31408;45.468;9.124;2023-08-30T00:50:09;2.92;;;1.52;;
45694;SDS011;31408;45.468;9.124;2023-08-30T00:52:35;2.92;;;1.58;;
45694;SDS011;31408;45.468;9.124;2023-08-30T00:55:00;1.77;;;1.45;;
45694;SDS011;31408;45.468;9.124;2023-08-30T00:57:26;2.80;;;1.65;;
45694;SDS011;31408;45.468;9.124;2023-08-30T00:59:51;5.63;;;2.10;;
45694;SDS011;31408;45.468;9.124;2023-08-30T01:02:20;2.90;;;1.27;;
45694;SDS011;31408;45.468;9.124;2023-08-30T01:04:45;3.80;;;1.65;;
45694;SDS011;31408;45.468;9.124;2023-08-30T01:07:11;6.22;;;1.98;;
45694;SDS011;31408;45.468;9.124;2023-08-30T01:09:37;2.10;;;1.80;;
45694;SDS011;31408;45.468;9.124;2023-08-30T01:14:58;3.75;;;1.73;;
45694;SDS011;31408;45.468;9.124;2023-08-30T01:17:26;5.88;;;1.83;;
45694;SDS011;31408;45.468;9.124;2023-08-30T01:25:00;3.30;;;1.88;;
45694;SDS011;31408;45.468;9.124;2023-08-30T01:27:33;3.80;;;1.58;;
45694;SDS011;31408;45.468;9.124;2023-08-30T01:30:00;4.63;;;1.60;;
45694;SDS011;31408;45.468;9.124;2023-08-30T01:32:26;1.67;;;1.42;;
45694;SDS011;31408;45.468;9.124;2023-08-30T01:34:53;10.30;;;1.85;;
45694;SDS011;31408;45.468;9.124;2023-08-30T01:37:20;6.93;;;1.65;;
45694;SDS011;31408;45.468;9.124;2023-08-30T01:39:47;5.07;;;1.80;;
45694;SDS011;31408;45.468;9.124;2023-08-30T01:42:13;3.83;;;1.70;;
45694;SDS011;31408;45.468;9.124;2023-08-30T01:44:41;6.90;;;1.63;;
45694;SDS011;31408;45.468;9.124;2023-08-30T01:47:09;3.75;;;1.30;;
45694;SDS011;31408;45.468;9.124;2023-08-30T01:49:35;7.60;;;2.80;;
45694;SDS011;31408;45.468;9.124;2023-08-30T01:52:02;8.77;;;2.08;;
45694;SDS011;31408;45.468;9.124;2023-08-30T01:54:28;5.88;;;2.17;;
45694;SDS011;31408;45.468;9.124;2023-08-30T01:56:54;8.43;;;2.10;;
45694;SDS011;31408;45.468;9.124;2023-08-30T01:59:20;5.70;;;2.15;;
45694;SDS011;31408;45.468;9.124;2023-08-30T02:01:45;3.15;;;1.67;;
45694;SDS011;31408;45.468;9.124;2023-08-30T02:04:11;4.60;;;2.13;;
45694;SDS011;31408;45.468;9.124;2023-08-30T02:06:45;5.68;;;1.67;;
45694;SDS011;31408;45.468;9.124;2023-08-30T02:11:50;3.60;;;2.03;;
45694;SDS011;31408;45.468;9.124;2023-08-30T02:14:16;2.75;;;1.83;;
45694;SDS011;31408;45.468;9.124;2023-08-30T02:16:44;5.82;;;2.42;;
45694;SDS011;31408;45.468;9.124;2023-08-30T02:19:11;6.10;;;1.83;;
45694;SDS011;31408;45.468;9.124;2023-08-30T02:21:37;3.72;;;1.77;;
45694;SDS011;31408;45.468;9.124;2023-08-30T02:24:05;1.83;;;1.50;;
45694;SDS011;31408;45.468;9.124;2023-08-30T02:26:31;8.88;;;3.58;;
45694;SDS011;31408;45.468;9.124;2023-08-30T02:29:06;6.45;;;2.15;;
45694;SDS011;31408;45.468;9.124;2023-08-30T02:31:36;3.13;;;1.77;;
45694;SDS011;31408;45.468;9.124;2023-08-30T02:34:01;4.70;;;1.80;;
45694;SDS011;31408;45.468;9.124;2023-08-30T02:36:27;4.88;;;1.60;;
45694;SDS011;31408;45.468;9.124;2023-08-30T02:38:55;4.70;;;1.60;;
45694;SDS011;31408;45.468;9.124;2023-08-30T02:41:20;3.63;;;1.65;;
45694;SDS011;31408;45.468;9.124;2023-08-30T02:43:47;3.13;;;1.25;;
45694;SDS011;31408;45.468;9.124;2023-08-30T02:46:12;4.63;;;1.55;;
45694;SDS011;31408;45.468;9.124;2023-08-30T02:48:38;3.22;;;1.23;;
45694;SDS011;31408;45.468;9.124;2023-08-30T02:51:03;4.45;;;1.38;;
45694;SDS011;31408;45.468;9.124;2023-08-30T02:53:29;4.20;;;1.73;;
45694;SDS011;31408;45.468;9.124;2023-08-30T02:55:54;4.50;;;2.05;;
45694;SDS011;31408;45.468;9.124;2023-08-30T02:58:21;5.05;;;1.67;;
45694;SDS011;31408;45.468;9.124;2023-08-30T03:00:47;5.93;;;2.13;;
45694;SDS011;31408;45.468;9.124;2023-08-30T03:03:13;9.35;;;2.58;;
45694;SDS011;31408;45.468;9.124;2023-08-30T03:05:39;3.00;;;1.38;;
45694;SDS011;31408;45.468;9.124;2023-08-30T03:08:05;2.65;;;1.88;;
45694;SDS011;31408;45.468;9.124;2023-08-30T03:10:31;1.55;;;1.42;;
45694;SDS011;31408;45.468;9.124;2023-08-30T03:12:57;6.57;;;2.05;;
45694;SDS011;31408;45.468;9.124;2023-08-30T03:15:22;1.70;;;1.60;;
45694;SDS011;31408;45.468;9.124;2023-08-30T03:17:48;3.17;;;1.55;;
45694;SDS011;31408;45.468;9.124;2023-08-30T03:20:13;6.82;;;1.88;;
45694;SDS011;31408;45.468;9.124;2023-08-30T03:22:39;3.50;;;2.00;;
45694;SDS011;31408;45.468;9.124;2023-08-30T03:25:05;3.78;;;1.85;;
45694;SDS011;31408;45.468;9.124;2023-08-30T03:27:32;3.55;;;1.65;;
45694;SDS011;31408;45.468;9.124;2023-08-30T03:29:58;3.70;;;1.77;;
45694;SDS011;31408;45.468;9.124;2023-08-30T03:32:23;3.45;;;2.00;;
45694;SDS011;31408;45.468;9.124;2023-08-30T03:34:49;4.35;;;1.83;;
45694;SDS011;31408;45.468;9.124;2023-08-30T03:37:14;3.85;;;1.95;;
45694;SDS011;31408;45.468;9.124;2023-08-30T03:39:40;2.75;;;1.58;;
45694;SDS011;31408;45.468;9.124;2023-08-30T03:42:06;8.77;;;2.22;;
45694;SDS011;31408;45.468;9.124;2023-08-30T03:44:31;4.18;;;2.03;;
45694;SDS011;31408;45.468;9.124;2023-08-30T03:46:57;3.53;;;1.85;;
45694;SDS011;31408;45.468;9.124;2023-08-30T03:49:22;7.22;;;2.00;;
45694;SDS011;31408;45.468;9.124;2023-08-30T03:51:48;4.72;;;2.13;;
45694;SDS011;31408;45.468;9.124;2023-08-30T03:54:13;5.78;;;2.53;;
45694;SDS011;31408;45.468;9.124;2023-08-30T03:56:42;5.75;;;2.55;;
45694;SDS011;31408;45.468;9.124;2023-08-30T03:59:07;2.85;;;2.05;;
45694;SDS011;31408;45.468;9.124;2023-08-30T04:01:33;5.40;;;2.05;;
45694;SDS011;31408;45.468;9.124;2023-08-30T04:03:58;5.80;;;2.00;;
45694;SDS011;31408;45.468;9.124;2023-08-30T04:06:25;12.95;;;2.53;;
45694;SDS011;31408;45.468;9.124;2023-08-30T04:08:56;3.42;;;2.00;;
45694;SDS011;31408;45.468;9.124;2023-08-30T04:11:21;2.67;;;2.05;;
45694;SDS011;31408;45.468;9.124;2023-08-30T04:13:47;5.25;;;2.53;;
45694;SDS011;31408;45.468;9.124;2023-08-30T04:16:13;4.43;;;1.95;;
45694;SDS011;31408;45.468;9.124;2023-08-30T04:18:38;3.55;;;2.47;;
45694;SDS011;31408;45.468;9.124;2023-08-30T04:21:04;7.07;;;2.67;;
45694;SDS011;31408;45.468;9.124;2023-08-30T04:23:31;11.75;;;2.22;;
45694;SDS011;31408;45.468;9.124;2023-08-30T04:25:57;4.43;;;1.85;;
45694;SDS011;31408;45.468;9.124;2023-08-30T04:28:22;5.35;;;1.60;;
45694;SDS011;31408;45.468;9.124;2023-08-30T04:30:48;5.63;;;2.13;;
45694;SDS011;31408;45.468;9.124;2023-08-30T04:33:13;4.13;;;2.10;;
45694;SDS011;31408;45.468;9.124;2023-08-30T04:35:39;3.20;;;1.88;;
45694;SDS011;31408;45.468;9.124;2023-08-30T04:38:04;3.47;;;2.03;;
45694;SDS011;31408;45.468;9.124;2023-08-30T04:40:30;5.63;;;2.20;;
45694;SDS011;31408;45.468;9.124;2023-08-30T04:43:00;6.50;;;1.95;;
45694;SDS011;31408;45.468;9.124;2023-08-30T04:45:25;2.47;;;1.67;;
45694;SDS011;31408;45.468;9.124;2023-08-30T04:47:51;4.53;;;2.00;;
45694;SDS011;31408;45.468;9.124;2023-08-30T04:50:18;6.78;;;2.88;;
45694;SDS011;31408;45.468;9.124;2023-08-30T04:52:43;5.03;;;1.88;;
45694;SDS011;31408;45.468;9.124;2023-08-30T04:55:10;5.72;;;1.92;;
45694;SDS011;31408;45.468;9.124;2023-08-30T04:57:36;3.92;;;1.67;;
45694;SDS011;31408;45.468;9.124;2023-08-30T05:00:03;5.75;;;2.42;;
45694;SDS011;31408;45.468;9.124;2023-08-30T05:02:30;4.97;;;1.83;;
45694;SDS011;31408;45.468;9.124;2023-08-30T05:05:01;4.60;;;2.20;;
45694;SDS011;31408;45.468;9.124;2023-08-30T05:07:30;1.77;;;1.60;;
45694;SDS011;31408;45.468;9.124;2023-08-30T05:09:56;3.50;;;2.10;;
45694;SDS011;31408;45.468;9.124;2023-08-30T05:12:21;6.85;;;2.08;;
45694;SDS011;31408;45.468;9.124;2023-08-30T05:14:47;2.17;;;1.67;;
45694;SDS011;31408;45.468;9.124;2023-08-30T05:17:12;2.22;;;1.73;;
45694;SDS011;31408;45.468;9.124;2023-08-30T05:19:38;5.72;;;3.40;;
45694;SDS011;31408;45.468;9.124;2023-08-30T05:22:04;4.78;;;2.17;;
45694;SDS011;31408;45.468;9.124;2023-08-30T05:24:29;4.72;;;1.70;;
45694;SDS011;31408;45.468;9.124;2023-08-30T05:26:59;3.58;;;2.30;;
45694;SDS011;31408;45.468;9.124;2023-08-30T05:29:25;2.50;;;1.80;;
45694;SDS011;31408;45.468;9.124;2023-08-30T05:31:51;3.58;;;2.30;;
45694;SDS011;31408;45.468;9.124;2023-08-30T05:34:35;3.65;;;1.90;;
45694;SDS011;31408;45.468;9.124;2023-08-30T05:42:17;3.53;;;1.13;;
45694;SDS011;31408;45.468;9.124;2023-08-30T05:44:43;2.15;;;1.58;;
45694;SDS011;31408;45.468;9.124;2023-08-30T05:47:08;3.10;;;1.92;;
45694;SDS011;31408;45.468;9.124;2023-08-30T05:49:39;3.67;;;1.85;;
45694;SDS011;31408;45.468;9.124;2023-08-30T05:52:06;1.83;;;1.50;;
45694;SDS011;31408;45.468;9.124;2023-08-30T05:54:31;4.95;;;2.35;;
45694;SDS011;31408;45.468;9.124;2023-08-30T05:56:59;6.18;;;2.55;;
45694;SDS011;31408;45.468;9.124;2023-08-30T05:59:24;7.18;;;2.33;;
45694;SDS011;31408;45.468;9.124;2023-08-30T06:01:50;4.30;;;2.35;;
45694;SDS011;31408;45.468;9.124;2023-08-30T06:04:15;5.88;;;2.58;;
45694;SDS011;31408;45.468;9.124;2023-08-30T06:06:41;4.03;;;1.77;;
45694;SDS011;31408;45.468;9.124;2023-08-30T06:09:06;2.35;;;1.70;;
45694;SDS011;31408;45.468;9.124;2023-08-30T06:11:32;6.00;;;1.80;;
45694;SDS011;31408;45.468;9.124;2023-08-30T06:13:58;5.30;;;2.00;;
45694;SDS011;31408;45.468;9.124;2023-08-30T06:16:24;8.15;;;2.47;;
45694;SDS011;31408;45.468;9.124;2023-08-30T06:18:50;3.03;;;1.60;;
45694;SDS011;31408;45.468;9.124;2023-08-30T06:21:16;6.22;;;2.22;;
45694;SDS011;31408;45.468;9.124;2023-08-30T06:23:41;3.83;;;1.88;;
45694;SDS011;31408;45.468;9.124;2023-08-30T06:26:07;4.55;;;2.30;;
45694;SDS011;31408;45.468;9.124;2023-08-30T06:28:37;3.20;;;1.88;;
45694;SDS011;31408;45.468;9.124;2023-08-30T06:31:03;2.17;;;1.70;;
45694;SDS011;31408;45.468;9.124;2023-08-30T06:33:28;7.88;;;1.38;;
45694;SDS011;31408;45.468;9.124;2023-08-30T06:35:54;4.25;;;2.40;;
45694;SDS011;31408;45.468;9.124;2023-08-30T06:38:21;4.30;;;1.75;;
45694;SDS011;31408;45.468;9.124;2023-08-30T06:40:46;7.65;;;2.00;;
45694;SDS011;31408;45.468;9.124;2023-08-30T06:43:12;8.65;;;1.88;;
45694;SDS011;31408;45.468;9.124;2023-08-30T06:45:38;4.60;;;2.42;;
45694;SDS011;31408;45.468;9.124;2023-08-30T06:48:05;3.15;;;1.70;;
45694;SDS011;31408;45.468;9.124;2023-08-30T06:50:31;7.72;;;2.38;;
45694;SDS011;31408;45.468;9.124;2023-08-30T06:52:57;4.32;;;1.67;;
45694;SDS011;31408;45.468;9.124;2023-08-30T06:55:23;5.28;;;1.77;;
45694;SDS011;31408;45.468;9.124;2023-08-30T06:57:48;5.63;;;1.75;;
45694;SDS011;31408;45.468;9.124;2023-08-30T07:00:15;5.18;;;2.17;;
45694;SDS011;31408;45.468;9.124;2023-08-30T07:02:41;5.95;;;1.90;;
45694;SDS011;31408;45.468;9.124;2023-08-30T07:05:10;2.38;;;1.75;;
45694;SDS011;31408;45.468;9.124;2023-08-30T07:07:35;3.55;;;2.00;;
45694;SDS011;31408;45.468;9.124;2023-08-30T07:10:06;2.85;;;1.90;;
45694;SDS011;31408;45.468;9.124;2023-08-30T07:12:32;4.53;;;1.67;;
45694;SDS011;31408;45.468;9.124;2023-08-30T07:14:57;4.25;;;1.60;;
45694;SDS011;31408;45.468;9.124;2023-08-30T07:17:23;7.43;;;2.45;;
45694;SDS011;31408;45.468;9.124;2023-08-30T07:19:48;10.43;;;1.73;;
45694;SDS011;31408;45.468;9.124;2023-08-30T07:22:14;3.53;;;1.27;;
45694;SDS011;31408;45.468;9.124;2023-08-30T07:24:42;6.45;;;1.70;;
45694;SDS011;31408;45.468;9.124;2023-08-30T07:27:08;5.97;;;2.10;;
45694;SDS011;31408;45.468;9.124;2023-08-30T07:29:33;3.85;;;2.00;;
45694;SDS011;31408;45.468;9.124;2023-08-30T07:31:59;4.72;;;2.50;;
45694;SDS011;31408;45.468;9.124;2023-08-30T07:34:24;7.40;;;2.13;;
45694;SDS011;31408;45.468;9.124;2023-08-30T07:36:50;2.63;;;1.60;;
45694;SDS011;31408;45.468;9.124;2023-08-30T07:39:15;4.18;;;1.88;;
45694;SDS011;31408;45.468;9.124;2023-08-30T07:41:41;4.47;;;2.17;;
45694;SDS011;31408;45.468;9.124;2023-08-30T07:44:06;2.67;;;1.42;;
45694;SDS011;31408;45.468;9.124;2023-08-30T07:46:32;9.65;;;2.90;;
45694;SDS011;31408;45.468;9.124;2023-08-30T07:48:57;4.45;;;2.17;;
45694;SDS011;31408;45.468;9.124;2023-08-30T07:51:23;3.53;;;2.00;;
45694;SDS011;31408;45.468;9.124;2023-08-30T07:53:48;4.13;;;1.90;;
45694;SDS011;31408;45.468;9.124;2023-08-30T07:56:14;7.03;;;2.03;;
45694;SDS011;31408;45.468;9.124;2023-08-30T07:58:40;5.97;;;2.85;;
45694;SDS011;31408;45.468;9.124;2023-08-30T08:01:08;3.20;;;1.70;;
45694;SDS011;31408;45.468;9.124;2023-08-30T08:03:34;6.05;;;2.13;;
45694;SDS011;31408;45.468;9.124;2023-08-30T08:05:59;10.90;;;2.38;;
45694;SDS011;31408;45.468;9.124;2023-08-30T08:08:25;4.05;;;1.55;;
45694;SDS011;31408;45.468;9.124;2023-08-30T08:10:51;4.00;;;2.05;;
45694;SDS011;31408;45.468;9.124;2023-08-30T08:13:16;2.65;;;1.88;;
45694;SDS011;31408;45.468;9.124;2023-08-30T08:15:41;5.18;;;2.25;;
45694;SDS011;31408;45.468;9.124;2023-08-30T08:18:09;4.35;;;2.17;;
45694;SDS011;31408;45.468;9.124;2023-08-30T08:20:34;5.25;;;2.03;;
45694;SDS011;31408;45.468;9.124;2023-08-30T08:23:01;3.55;;;1.88;;
45694;SDS011;31408;45.468;9.124;2023-08-30T08:25:27;6.53;;;2.63;;
45694;SDS011;31408;45.468;9.124;2023-08-30T08:27:53;3.83;;;2.20;;
45694;SDS011;31408;45.468;9.124;2023-08-30T08:30:23;4.35;;;1.80;;
45694;SDS011;31408;45.468;9.124;2023-08-30T08:32:49;2.42;;;1.73;;
45694;SDS011;31408;45.468;9.124;2023-08-30T08:35:14;4.55;;;1.75;;
45694;SDS011;31408;45.468;9.124;2023-08-30T08:37:40;4.30;;;1.90;;
45694;SDS011;31408;45.468;9.124;2023-08-30T08:40:06;5.32;;;1.90;;
45694;SDS011;31408;45.468;9.124;2023-08-30T08:42:34;5.22;;;2.05;;
45694;SDS011;31408;45.468;9.124;2023-08-30T08:45:00;5.75;;;2.03;;
45694;SDS011;31408;45.468;9.124;2023-08-30T08:47:27;5.50;;;2.70;;
45694;SDS011;31408;45.468;9.124;2023-08-30T08:49:55;4.47;;;1.90;;
45694;SDS011;31408;45.468;9.124;2023-08-30T08:52:20;8.75;;;1.77;;
45694;SDS011;31408;45.468;9.124;2023-08-30T08:54:46;2.75;;;1.48;;
45694;SDS011;31408;45.468;9.124;2023-08-30T08:57:12;3.67;;;1.95;;
45694;SDS011;31408;45.468;9.124;2023-08-30T08:59:37;5.28;;;2.00;;
45694;SDS011;31408;45.468;9.124;2023-08-30T09:02:03;5.13;;;1.55;;
45694;SDS011;31408;45.468;9.124;2023-08-30T09:04:30;4.20;;;2.08;;
45694;SDS011;31408;45.468;9.124;2023-08-30T09:06:55;3.97;;;1.70;;
45694;SDS011;31408;45.468;9.124;2023-08-30T09:09:21;6.45;;;2.08;;
45694;SDS011;31408;45.468;9.124;2023-08-30T09:11:48;4.18;;;1.75;;
45694;SDS011;31408;45.468;9.124;2023-08-30T09:14:13;8.00;;;2.00;;
45694;SDS011;31408;45.468;9.124;2023-08-30T09:16:39;3.28;;;1.52;;
45694;SDS011;31408;45.468;9.124;2023-08-30T09:19:04;5.05;;;1.55;;
45694;SDS011;31408;45.468;9.124;2023-08-30T09:21:30;1.70;;;1.20;;
45694;SDS011;31408;45.468;9.124;2023-08-30T09:26:31;5.38;;;1.63;;
45694;SDS011;31408;45.468;9.124;2023-08-30T09:29:01;4.35;;;2.35;;
45694;SDS011;31408;45.468;9.124;2023-08-30T09:31:32;10.45;;;2.17;;
45694;SDS011;31408;45.468;9.124;2023-08-30T09:34:02;2.47;;;1.52;;
45694;SDS011;31408;45.468;9.124;2023-08-30T09:36:35;6.65;;;2.03;;
45694;SDS011;31408;45.468;9.124;2023-08-30T09:39:05;5.30;;;2.17;;
45694;SDS011;31408;45.468;9.124;2023-08-30T09:41:31;2.85;;;1.15;;
45694;SDS011;31408;45.468;9.124;2023-08-30T09:43:58;3.88;;;1.65;;
45694;SDS011;31408;45.468;9.124;2023-08-30T09:46:24;2.38;;;1.55;;
45694;SDS011;31408;45.468;9.124;2023-08-30T09:48:55;5.57;;;2.30;;
45694;SDS011;31408;45.468;9.124;2023-08-30T09:51:20;6.85;;;1.55;;
45694;SDS011;31408;45.468;9.124;2023-08-30T09:53:49;2.55;;;1.63;;
45694;SDS011;31408;45.468;9.124;2023-08-30T09:56:19;4.95;;;1.35;;
45694;SDS011;31408;45.468;9.124;2023-08-30T09:58:47;2.70;;;1.40;;
45694;SDS011;31408;45.468;9.124;2023-08-30T10:01:13;3.70;;;1.50;;
45694;SDS011;31408;45.468;9.124;2023-08-30T10:03:39;4.30;;;1.17;;
45694;SDS011;31408;45.468;9.124;2023-08-30T10:06:05;2.13;;;1.23;;
45694;SDS011;31408;45.468;9.124;2023-08-30T10:08:31;5.03;;;1.40;;
45694;SDS011;31408;45.468;9.124;2023-08-30T10:10:59;5.75;;;2.08;;
45694;SDS011;31408;45.468;9.124;2023-08-30T10:13:25;1.58;;;1.17;;
45694;SDS011;31408;45.468;9.124;2023-08-30T10:15:52;4.53;;;1.48;;
45694;SDS011;31408;45.468;9.124;2023-08-30T10:18:19;7.00;;;1.58;;
45694;SDS011;31408;45.468;9.124;2023-08-30T10:20:46;5.22;;;1.30;;
45694;SDS011;31408;45.468;9.124;2023-08-30T10:23:12;3.80;;;1.50;;
45694;SDS011;31408;45.468;9.124;2023-08-30T10:25:38;3.38;;;1.50;;
45694;SDS011;31408;45.468;9.124;2023-08-30T10:28:05;2.28;;;1.30;;
45694;SDS011;31408;45.468;9.124;2023-08-30T10:30:31;3.38;;;1.42;;
45694;SDS011;31408;45.468;9.124;2023-08-30T10:32:57;4.10;;;1.00;;
45694;SDS011;31408;45.468;9.124;2023-08-30T10:35:24;4.80;;;1.33;;
45694;SDS011;31408;45.468;9.124;2023-08-30T10:37:54;3.63;;;1.40;;
45694;SDS011;31408;45.468;9.124;2023-08-30T10:40:24;3.22;;;0.88;;
45694;SDS011;31408;45.468;9.124;2023-08-30T10:43:02;3.85;;;1.42;;
45694;SDS011;31408;45.468;9.124;2023-08-30T10:45:28;2.03;;;1.20;;
45694;SDS011;31408;45.468;9.124;2023-08-30T10:47:56;3.13;;;0.88;;
45694;SDS011;31408;45.468;9.124;2023-08-30T10:50:27;1.92;;;1.38;;
45694;SDS011;31408;45.468;9.124;2023-08-30T10:52:54;1.10;;;1.00;;
45694;SDS011;31408;45.468;9.124;2023-08-30T10:55:21;1.75;;;0.77;;
45694;SDS011;31408;45.468;9.124;2023-08-30T10:57:57;1.13;;;0.75;;
45694;SDS011;31408;45.468;9.124;2023-08-30T11:00:23;2.38;;;1.00;;
45694;SDS011;31408;45.468;9.124;2023-08-30T11:02:49;1.80;;;0.85;;
45694;SDS011;31408;45.468;9.124;2023-08-30T11:05:16;15.48;;;1.13;;
45694;SDS011;31408;45.468;9.124;2023-08-30T11:07:43;2.08;;;0.90;;
45694;SDS011;31408;45.468;9.124;2023-08-30T11:10:15;0.60;;;0.60;;
45694;SDS011;31408;45.468;9.124;2023-08-30T11:12:41;2.17;;;0.98;;
45694;SDS011;31408;45.468;9.124;2023-08-30T11:15:07;2.47;;;0.90;;
45694;SDS011;31408;45.468;9.124;2023-08-30T11:17:34;1.83;;;0.75;;
45694;SDS011;31408;45.468;9.124;2023-08-30T11:20:09;1.75;;;0.75;;
45694;SDS011;31408;45.468;9.124;2023-08-30T11:22:40;3.83;;;1.30;;
45694;SDS011;31408;45.468;9.124;2023-08-30T11:25:07;0.55;;;0.55;;
45694;SDS011;31408;45.468;9.124;2023-08-30T11:27:34;2.97;;;1.35;;
45694;SDS011;31408;45.468;9.124;2023-08-30T11:30:00;0.90;;;0.70;;
45694;SDS011;31408;45.468;9.124;2023-08-30T11:32:31;1.00;;;0.70;;
45694;SDS011;31408;45.468;9.124;2023-08-30T11:34:57;0.50;;;0.50;;
45694;SDS011;31408;45.468;9.124;2023-08-30T11:37:23;1.95;;;0.80;;
45694;SDS011;31408;45.468;9.124;2023-08-30T11:39:51;0.90;;;0.57;;
45694;SDS011;31408;45.468;9.124;2023-08-30T11:42:17;2.92;;;0.85;;
45694;SDS011;31408;45.468;9.124;2023-08-30T11:44:44;2.17;;;0.70;;
45694;SDS011;31408;45.468;9.124;2023-08-30T11:47:23;0.70;;;0.55;;
45694;SDS011;31408;45.468;9.124;2023-08-30T11:49:49;6.28;;;0.68;;
45694;SDS011;31408;45.468;9.124;2023-08-30T11:52:15;2.40;;;1.35;;
45694;SDS011;31408;45.468;9.124;2023-08-30T11:54:41;0.77;;;0.50;;
45694;SDS011;31408;45.468;9.124;2023-08-30T11:57:08;1.10;;;0.50;;
45694;SDS011;31408;45.468;9.124;2023-08-30T11:59:38;1.50;;;0.68;;
45694;SDS011;31408;45.468;9.124;2023-08-30T12:02:04;2.15;;;0.80;;
45694;SDS011;31408;45.468;9.124;2023-08-30T12:04:30;0.40;;;0.40;;
45694;SDS011;31408;45.468;9.124;2023-08-30T12:06:56;2.30;;;0.50;;
45694;SDS011;31408;45.468;9.124;2023-08-30T12:09:22;0.80;;;0.80;;
45694;SDS011;31408;45.468;9.124;2023-08-30T12:11:50;0.95;;;0.47;;
45694;SDS011;31408;45.468;9.124;2023-08-30T12:14:16;1.90;;;0.60;;
45694;SDS011;31408;45.468;9.124;2023-08-30T12:16:42;0.82;;;0.50;;
45694;SDS011;31408;45.468;9.124;2023-08-30T12:19:16;1.27;;;0.40;;
45694;SDS011;31408;45.468;9.124;2023-08-30T12:21:42;0.30;;;0.30;;
45694;SDS011;31408;45.468;9.124;2023-08-30T12:24:08;1.58;;;0.60;;
45694;SDS011;31408;45.468;9.124;2023-08-30T12:26:34;2.40;;;0.57;;
45694;SDS011;31408;45.468;9.124;2023-08-30T12:29:00;1.65;;;0.43;;
45694;SDS011;31408;45.468;9.124;2023-08-30T12:31:25;0.95;;;0.40;;
45694;SDS011;31408;45.468;9.124;2023-08-30T12:33:53;1.17;;;0.47;;
45694;SDS011;31408;45.468;9.124;2023-08-30T12:36:19;0.40;;;0.40;;
45694;SDS011;31408;45.468;9.124;2023-08-30T12:38:49;0.30;;;0.20;;
45694;SDS011;31408;45.468;9.124;2023-08-30T12:41:15;1.05;;;0.47;;
45694;SDS011;31408;45.468;9.124;2023-08-30T12:43:43;2.08;;;0.73;;
45694;SDS011;31408;45.468;9.124;2023-08-30T12:46:08;2.38;;;0.50;;
45694;SDS011;31408;45.468;9.124;2023-08-30T12:48:34;0.65;;;0.57;;
45694;SDS011;31408;45.468;9.124;2023-08-30T12:50:59;2.30;;;0.95;;
45694;SDS011;31408;45.468;9.124;2023-08-30T12:53:25;0.32;;;0.30;;
45694;SDS011;31408;45.468;9.124;2023-08-30T12:55:50;1.58;;;0.73;;
45694;SDS011;31408;45.468;9.124;2023-08-30T12:58:16;0.52;;;0.25;;
45694;SDS011;31408;45.468;9.124;2023-08-30T13:00:41;0.95;;;0.47;;
45694;SDS011;31408;45.468;9.124;2023-08-30T13:03:07;0.40;;;0.40;;
45694;SDS011;31408;45.468;9.124;2023-08-30T13:05:32;0.30;;;0.30;;
45694;SDS011;31408;45.468;9.124;2023-08-30T13:07:58;0.95;;;0.40;;
45694;SDS011;31408;45.468;9.124;2023-08-30T13:10:25;0.70;;;0.47;;
45694;SDS011;31408;45.468;9.124;2023-08-30T13:12:50;1.83;;;0.70;;
45694;SDS011;31408;45.468;9.124;2023-08-30T13:15:16;0.50;;;0.50;;
45694;SDS011;31408;45.468;9.124;2023-08-30T13:17:41;1.23;;;0.40;;
45694;SDS011;31408;45.468;9.124;2023-08-30T13:20:07;0.40;;;0.40;;
45694;SDS011;31408;45.468;9.124;2023-08-30T13:22:33;0.45;;;0.30;;
45694;SDS011;31408;45.468;9.124;2023-08-30T13:24:59;5.05;;;0.50;;
45694;SDS011;31408;45.468;9.124;2023-08-30T13:27:24;0.35;;;0.35;;
45694;SDS011;31408;45.468;9.124;2023-08-30T13:29:50;0.30;;;0.30;;
45694;SDS011;31408;45.468;9.124;2023-08-30T13:32:15;0.35;;;0.30;;
45694;SDS011;31408;45.468;9.124;2023-08-30T13:34:41;0.30;;;0.30;;
45694;SDS011;31408;45.468;9.124;2023-08-30T13:37:11;0.85;;;0.40;;
45694;SDS011;31408;45.468;9.124;2023-08-30T13:39:38;0.60;;;0.32;;
45694;SDS011;31408;45.468;9.124;2023-08-30T13:42:04;1.65;;;0.40;;
45694;SDS011;31408;45.468;9.124;2023-08-30T13:44:29;1.73;;;0.70;;
45694;SDS011;31408;45.468;9.124;2023-08-30T13:46:55;0.85;;;0.47;;
45694;SDS011;31408;45.468;9.124;2023-08-30T13:49:20;0.73;;;0.35;;
45694;SDS011;31408;45.468;9.124;2023-08-30T13:51:46;0.57;;;0.30;;
45694;SDS011;31408;45.468;9.124;2023-08-30T13:54:11;0.20;;;0.20;;
45694;SDS011;31408;45.468;9.124;2023-08-30T13:56:37;1.88;;;0.68;;
45694;SDS011;31408;45.468;9.124;2023-08-30T13:59:06;0.68;;;0.35;;
45694;SDS011;31408;45.468;9.124;2023-08-30T14:01:32;0.52;;;0.40;;
45694;SDS011;31408;45.468;9.124;2023-08-30T14:03:58;0.85;;;0.20;;
45694;SDS011;31408;45.468;9.124;2023-08-30T14:06:23;2.67;;;1.25;;
45694;SDS011;31408;45.468;9.124;2023-08-30T14:08:49;0.40;;;0.40;;
45694;SDS011;31408;45.468;9.124;2023-08-30T14:11:14;0.93;;;0.80;;
45694;SDS011;31408;45.468;9.124;2023-08-30T14:13:40;1.30;;;0.60;;
45694;SDS011;31408;45.468;9.124;2023-08-30T14:16:05;2.05;;;0.55;;
45694;SDS011;31408;45.468;9.124;2023-08-30T14:18:31;3.20;;;0.40;;
45694;SDS011;31408;45.468;9.124;2023-08-30T14:20:57;0.40;;;0.40;;
45694;SDS011;31408;45.468;9.124;2023-08-30T14:23:26;0.85;;;0.30;;
45694;SDS011;31408;45.468;9.124;2023-08-30T14:25:58;2.05;;;0.60;;
45694;SDS011;31408;45.468;9.124;2023-08-30T14:28:27;0.22;;;0.20;;
45694;SDS011;31408;45.468;9.124;2023-08-30T14:30:53;2.40;;;0.47;;
45694;SDS011;31408;45.468;9.124;2023-08-30T14:33:19;1.00;;;0.40;;
45694;SDS011;31408;45.468;9.124;2023-08-30T14:35:48;0.80;;;0.45;;
45694;SDS011;31408;45.468;9.124;2023-08-30T14:38:13;0.20;;;0.20;;
45694;SDS011;31408;45.468;9.124;2023-08-30T14:40:38;0.85;;;0.40;;
45694;SDS011;31408;45.468;9.124;2023-08-30T14:43:04;0.43;;;0.43;;
45694;SDS011;31408;45.468;9.124;2023-08-30T14:45:33;2.45;;;0.90;;
45694;SDS011;31408;45.468;9.124;2023-08-30T14:47:58;0.47;;;0.47;;
45694;SDS011;31408;45.468;9.124;2023-08-30T14:50:24;0.60;;;0.40;;
45694;SDS011;31408;45.468;9.124;2023-08-30T14:52:49;0.70;;;0.40;;
45694;SDS011;31408;45.468;9.124;2023-08-30T14:55:15;0.63;;;0.40;;
45694;SDS011;31408;45.468;9.124;2023-08-30T14:57:41;1.30;;;0.40;;
45694;SDS011;31408;45.468;9.124;2023-08-30T15:00:07;0.73;;;0.20;;
45694;SDS011;31408;45.468;9.124;2023-08-30T15:02:32;0.77;;;0.40;;